Flight Track Log - Related Links

Times and Time Zones

All times are in EST time to prevent confusion due to time zone crossing. See the LYM3418 flight status page for this flight to view local times or setup timezone preferences in your user account.

Time Position Orientation Groundspeed Altitude Reporting Facility
EST Latitude Longitude Course Direction KTS MPH feet Rate Location/Type
Sat 09:16:25 AM 39.8500 -104.7167 252° West 168 193 7,500  Level Denver TRACON
Sat 09:17:25 AM 39.8333 -104.7833 243° Southwest 208 239 9,100 1,636 Climbing Denver TRACON
Sat 09:18:37 AM 39.8000 -104.8667 226° Southwest 222 255 11,100 1,696 Climbing Denver TRACON
Sat 09:19:43 AM 39.7500 -104.9333 229° Southwest 238 274 13,000 1,526 Climbing Denver TRACON
Sat 09:20:31 AM 39.7167 -104.9833 245° Southwest 242 278 14,000 1,310 Climbing Denver TRACON
Sat 09:21:10 AM 39.6953 -105.0431 248° West 238 274 14,900 970 Climbing Denver Center
Sat 09:22:10 AM 39.6733 -105.1136 248° West 245 282 15,600 950 Climbing Denver Center
Sat 09:23:10 AM 39.6472 -105.1978 243° Southwest 245 282 16,800 1,000 Climbing Denver Center
Sat 09:24:10 AM 39.6186 -105.2711 250° West 245 282 17,600 1,050 Climbing Denver Center
Sat 09:25:10 AM 39.5967 -105.3494 252° West 239 275 18,900 1,000 Climbing Denver Center
Sat 09:26:10 AM 39.5764 -105.4306 255° West 234 269 19,600 550 Climbing Denver Center
Sat 09:27:10 AM 39.5583 -105.5172 257° West 249 287 20,000 200 Climbing Denver Center
Sat 09:28:10 AM 39.5425 -105.6089 251° West 260 299 20,000 -150 Level Denver Center
Sat 09:29:10 AM 39.5161 -105.7089 247° West 267 307 19,700  Descending Denver Center
Sat 09:30:10 AM 39.4894 -105.7897 251° West 262 302 20,000 50 Climbing Denver Center
Sat 09:31:10 AM 39.4669 -105.8761 249° West 262 302 19,800 50 Descending Denver Center
Sat 09:32:10 AM 39.4425 -105.9597 247° West 257 296 20,100 50 Climbing Denver Center
Sat 09:33:10 AM 39.4156 -106.0431 246° West 255 293 19,900 -100 Descending Denver Center
Sat 09:34:10 AM 39.3867 -106.1267 240° Southwest 255 293 19,900 50 Level Denver Center
Sat 09:35:10 AM 39.3514 -106.2047 192° South 255 293 20,000 100 Climbing Denver Center
Sat 09:36:10 AM 39.2597 -106.2292 191° South 278 320 20,100  Climbing Denver Center
Sat 09:37:10 AM 39.1639 -106.2536 197° South 313 360 20,000 -50 Descending Denver Center
Sat 09:38:10 AM 39.0764 -106.2886 207° Southwest 332 382 20,000 -200 Level Denver Center
Sat 09:39:10 AM 38.9972 -106.3397 220° Southwest 332 382 19,600 -600 Descending Denver Center
Sat 09:40:10 AM 38.9286 -106.4144 224° Southwest 327 376 18,800 -900 Descending Denver Center
Sat 09:41:10 AM 38.8658 -106.4917 224° Southwest 322 371 17,800 -1,400 Descending Denver Center
Sat 09:42:10 AM 38.8014 -106.5717 224° Southwest 322 371 16,000 -1,800 Descending Denver Center

Login

Don't have an account? Register now (free) for customized features, flight alerts, and more!